Terminal Aerodrome Forecast
Issued by NWS

Home | Current Version | Previous Version | Text Only | Print | Product List | Glossary On
Versions: 1 2 3 4 5 6 7 8 9 10 11 12 13 14 15
000
FTUS42 TJSJ 292100 AAA
TAFJSJ
TAF AMD
TJSJ 292108Z 2921/3018 08015KT P6SM FEW025 SCT070
     FM292200 11003KT P6SM FEW035
     FM301300 07009KT P6SM FEW035=

USA.gov is the U.S. government's official web portal to all federal, state and local government web resources and services.